sensor_id;sensor_type;location;lat;lon;timestamp;P1;durP1;ratioP1;P2;durP2;ratioP2
1509;SDS011;746;48.688;9.428;2023-01-06T00:00:23;7.77;;;6.70;;
1509;SDS011;746;48.688;9.428;2023-01-06T00:02:44;10.83;;;7.93;;
1509;SDS011;746;48.688;9.428;2023-01-06T00:05:06;10.30;;;8.70;;
1509;SDS011;746;48.688;9.428;2023-01-06T00:07:28;8.87;;;7.90;;
1509;SDS011;746;48.688;9.428;2023-01-06T00:09:49;10.07;;;7.57;;
1509;SDS011;746;48.688;9.428;2023-01-06T00:12:12;9.43;;;6.90;;
1509;SDS011;746;48.688;9.428;2023-01-06T00:14:33;7.10;;;6.40;;
1509;SDS011;746;48.688;9.428;2023-01-06T00:16:55;4.80;;;4.40;;
1509;SDS011;746;48.688;9.428;2023-01-06T00:19:16;6.13;;;5.53;;
1509;SDS011;746;48.688;9.428;2023-01-06T00:21:37;8.33;;;7.43;;
1509;SDS011;746;48.688;9.428;2023-01-06T00:24:01;8.17;;;6.83;;
1509;SDS011;746;48.688;9.428;2023-01-06T00:26:22;8.07;;;6.90;;
1509;SDS011;746;48.688;9.428;2023-01-06T00:28:45;11.57;;;7.93;;
1509;SDS011;746;48.688;9.428;2023-01-06T00:31:07;8.47;;;7.57;;
1509;SDS011;746;48.688;9.428;2023-01-06T00:33:28;8.50;;;7.20;;
1509;SDS011;746;48.688;9.428;2023-01-06T00:35:50;10.77;;;8.60;;
1509;SDS011;746;48.688;9.428;2023-01-06T00:38:11;10.10;;;7.87;;
1509;SDS011;746;48.688;9.428;2023-01-06T00:40:33;10.17;;;7.83;;
1509;SDS011;746;48.688;9.428;2023-01-06T00:42:55;8.30;;;7.50;;
1509;SDS011;746;48.688;9.428;2023-01-06T00:45:18;7.87;;;7.07;;
1509;SDS011;746;48.688;9.428;2023-01-06T00:47:39;6.20;;;5.70;;
1509;SDS011;746;48.688;9.428;2023-01-06T00:50:00;5.83;;;5.20;;
1509;SDS011;746;48.688;9.428;2023-01-06T00:52:21;5.60;;;5.10;;
1509;SDS011;746;48.688;9.428;2023-01-06T00:54:43;6.17;;;5.67;;
1509;SDS011;746;48.688;9.428;2023-01-06T00:57:04;5.77;;;5.27;;
1509;SDS011;746;48.688;9.428;2023-01-06T00:59:25;6.43;;;5.23;;
1509;SDS011;746;48.688;9.428;2023-01-06T01:01:51;6.90;;;5.30;;
1509;SDS011;746;48.688;9.428;2023-01-06T01:04:13;5.53;;;4.73;;
1509;SDS011;746;48.688;9.428;2023-01-06T01:06:34;5.57;;;5.10;;
1509;SDS011;746;48.688;9.428;2023-01-06T01:08:56;4.80;;;4.40;;
1509;SDS011;746;48.688;9.428;2023-01-06T01:11:18;5.53;;;5.03;;
1509;SDS011;746;48.688;9.428;2023-01-06T01:13:53;5.57;;;5.07;;
1509;SDS011;746;48.688;9.428;2023-01-06T01:16:14;5.60;;;4.97;;
1509;SDS011;746;48.688;9.428;2023-01-06T01:18:37;7.33;;;5.77;;
1509;SDS011;746;48.688;9.428;2023-01-06T01:20:58;6.30;;;5.40;;
1509;SDS011;746;48.688;9.428;2023-01-06T01:23:19;7.70;;;6.93;;
1509;SDS011;746;48.688;9.428;2023-01-06T01:25:41;8.50;;;7.40;;
1509;SDS011;746;48.688;9.428;2023-01-06T01:28:02;8.43;;;7.40;;
1509;SDS011;746;48.688;9.428;2023-01-06T01:30:24;8.73;;;7.83;;
1509;SDS011;746;48.688;9.428;2023-01-06T01:32:45;9.17;;;8.27;;
1509;SDS011;746;48.688;9.428;2023-01-06T01:35:08;7.73;;;6.77;;
1509;SDS011;746;48.688;9.428;2023-01-06T01:37:29;7.90;;;7.13;;
1509;SDS011;746;48.688;9.428;2023-01-06T01:39:51;9.23;;;6.63;;
1509;SDS011;746;48.688;9.428;2023-01-06T01:42:15;6.17;;;5.60;;
1509;SDS011;746;48.688;9.428;2023-01-06T01:47:36;7.40;;;6.70;;
1509;SDS011;746;48.688;9.428;2023-01-06T01:49:59;7.10;;;6.43;;
1509;SDS011;746;48.688;9.428;2023-01-06T01:52:23;8.10;;;6.60;;
1509;SDS011;746;48.688;9.428;2023-01-06T01:54:45;6.83;;;5.97;;
1509;SDS011;746;48.688;9.428;2023-01-06T01:57:08;6.23;;;5.63;;
1509;SDS011;746;48.688;9.428;2023-01-06T01:59:30;7.07;;;6.00;;
1509;SDS011;746;48.688;9.428;2023-01-06T02:01:52;6.90;;;6.30;;
1509;SDS011;746;48.688;9.428;2023-01-06T02:04:13;7.77;;;6.10;;
1509;SDS011;746;48.688;9.428;2023-01-06T02:06:35;7.93;;;6.63;;
1509;SDS011;746;48.688;9.428;2023-01-06T02:08:59;6.47;;;5.87;;
1509;SDS011;746;48.688;9.428;2023-01-06T02:11:21;5.40;;;4.90;;
1509;SDS011;746;48.688;9.428;2023-01-06T02:13:43;5.50;;;4.40;;
1509;SDS011;746;48.688;9.428;2023-01-06T02:16:09;4.70;;;4.30;;
1509;SDS011;746;48.688;9.428;2023-01-06T02:18:36;4.90;;;4.50;;
1509;SDS011;746;48.688;9.428;2023-01-06T02:21:08;5.80;;;5.30;;
1509;SDS011;746;48.688;9.428;2023-01-06T02:26:37;4.90;;;4.40;;
1509;SDS011;746;48.688;9.428;2023-01-06T02:29:25;5.23;;;4.83;;
1509;SDS011;746;48.688;9.428;2023-01-06T02:32:06;5.40;;;4.90;;
1509;SDS011;746;48.688;9.428;2023-01-06T02:34:31;6.33;;;5.40;;
1509;SDS011;746;48.688;9.428;2023-01-06T02:37:01;5.97;;;5.30;;
1509;SDS011;746;48.688;9.428;2023-01-06T02:39:29;6.17;;;5.63;;
1509;SDS011;746;48.688;9.428;2023-01-06T02:41:54;5.03;;;4.53;;
1509;SDS011;746;48.688;9.428;2023-01-06T02:44:25;6.33;;;5.37;;
1509;SDS011;746;48.688;9.428;2023-01-06T02:46:55;6.63;;;6.03;;
1509;SDS011;746;48.688;9.428;2023-01-06T02:49:23;7.30;;;6.37;;
1509;SDS011;746;48.688;9.428;2023-01-06T02:51:46;6.53;;;5.93;;
1509;SDS011;746;48.688;9.428;2023-01-06T02:54:12;6.63;;;6.03;;
1509;SDS011;746;48.688;9.428;2023-01-06T02:56:36;6.03;;;5.53;;
1509;SDS011;746;48.688;9.428;2023-01-06T02:59:00;5.77;;;5.37;;
1509;SDS011;746;48.688;9.428;2023-01-06T03:01:23;6.67;;;5.97;;
1509;SDS011;746;48.688;9.428;2023-01-06T03:03:45;6.43;;;5.60;;
1509;SDS011;746;48.688;9.428;2023-01-06T03:06:10;5.53;;;5.00;;
1509;SDS011;746;48.688;9.428;2023-01-06T03:08:33;5.63;;;5.13;;
1509;SDS011;746;48.688;9.428;2023-01-06T03:10:55;6.73;;;5.20;;
1509;SDS011;746;48.688;9.428;2023-01-06T03:13:20;5.60;;;5.07;;
1509;SDS011;746;48.688;9.428;2023-01-06T03:15:43;6.30;;;5.70;;
1509;SDS011;746;48.688;9.428;2023-01-06T03:18:04;7.50;;;5.70;;
1509;SDS011;746;48.688;9.428;2023-01-06T03:20:26;5.67;;;5.17;;
1509;SDS011;746;48.688;9.428;2023-01-06T03:22:49;5.53;;;5.13;;
1509;SDS011;746;48.688;9.428;2023-01-06T03:25:10;5.23;;;4.73;;
1509;SDS011;746;48.688;9.428;2023-01-06T03:27:31;5.27;;;4.57;;
1509;SDS011;746;48.688;9.428;2023-01-06T03:29:52;5.20;;;4.70;;
1509;SDS011;746;48.688;9.428;2023-01-06T03:32:16;4.33;;;4.03;;
1509;SDS011;746;48.688;9.428;2023-01-06T03:34:43;4.40;;;4.00;;
1509;SDS011;746;48.688;9.428;2023-01-06T03:37:07;4.37;;;3.97;;
1509;SDS011;746;48.688;9.428;2023-01-06T03:39:33;3.83;;;3.53;;
1509;SDS011;746;48.688;9.428;2023-01-06T03:41:56;4.50;;;4.20;;
1509;SDS011;746;48.688;9.428;2023-01-06T03:44:56;4.77;;;4.13;;
1509;SDS011;746;48.688;9.428;2023-01-06T03:47:20;4.40;;;4.10;;
1509;SDS011;746;48.688;9.428;2023-01-06T03:49:44;4.60;;;4.20;;
1509;SDS011;746;48.688;9.428;2023-01-06T03:52:10;5.20;;;4.70;;
1509;SDS011;746;48.688;9.428;2023-01-06T03:54:36;5.03;;;4.50;;
1509;SDS011;746;48.688;9.428;2023-01-06T03:57:00;5.70;;;4.80;;
1509;SDS011;746;48.688;9.428;2023-01-06T03:59:23;5.23;;;4.33;;
1509;SDS011;746;48.688;9.428;2023-01-06T04:01:46;4.80;;;4.40;;
1509;SDS011;746;48.688;9.428;2023-01-06T04:04:08;5.00;;;4.50;;
1509;SDS011;746;48.688;9.428;2023-01-06T04:06:29;5.00;;;4.60;;
1509;SDS011;746;48.688;9.428;2023-01-06T04:08:51;4.57;;;4.20;;
1509;SDS011;746;48.688;9.428;2023-01-06T04:11:14;6.30;;;5.10;;
1509;SDS011;746;48.688;9.428;2023-01-06T04:13:49;7.50;;;5.20;;
1509;SDS011;746;48.688;9.428;2023-01-06T04:16:10;6.20;;;5.63;;
1509;SDS011;746;48.688;9.428;2023-01-06T04:18:32;7.60;;;5.50;;
1509;SDS011;746;48.688;9.428;2023-01-06T04:20:53;6.27;;;5.67;;
1509;SDS011;746;48.688;9.428;2023-01-06T04:23:14;5.37;;;4.97;;
1509;SDS011;746;48.688;9.428;2023-01-06T04:25:35;6.07;;;4.90;;
1509;SDS011;746;48.688;9.428;2023-01-06T04:27:58;5.10;;;4.43;;
1509;SDS011;746;48.688;9.428;2023-01-06T04:30:19;5.30;;;4.80;;
1509;SDS011;746;48.688;9.428;2023-01-06T04:32:40;5.37;;;4.87;;
1509;SDS011;746;48.688;9.428;2023-01-06T04:35:02;5.60;;;5.07;;
1509;SDS011;746;48.688;9.428;2023-01-06T04:37:23;7.03;;;6.43;;
1509;SDS011;746;48.688;9.428;2023-01-06T04:39:44;8.63;;;7.67;;
1509;SDS011;746;48.688;9.428;2023-01-06T04:42:06;7.20;;;6.50;;
1509;SDS011;746;48.688;9.428;2023-01-06T04:44:28;6.43;;;5.93;;
1509;SDS011;746;48.688;9.428;2023-01-06T04:46:49;5.53;;;5.03;;
1509;SDS011;746;48.688;9.428;2023-01-06T04:49:11;5.47;;;4.50;;
1509;SDS011;746;48.688;9.428;2023-01-06T04:51:33;5.17;;;4.67;;
1509;SDS011;746;48.688;9.428;2023-01-06T04:53:54;6.13;;;5.53;;
1509;SDS011;746;48.688;9.428;2023-01-06T04:56:16;7.27;;;5.87;;
1509;SDS011;746;48.688;9.428;2023-01-06T04:58:37;6.57;;;6.00;;
1509;SDS011;746;48.688;9.428;2023-01-06T05:01:00;7.37;;;5.20;;
1509;SDS011;746;48.688;9.428;2023-01-06T05:03:21;5.20;;;4.80;;
1509;SDS011;746;48.688;9.428;2023-01-06T05:05:43;5.17;;;4.70;;
1509;SDS011;746;48.688;9.428;2023-01-06T05:08:04;5.93;;;5.43;;
1509;SDS011;746;48.688;9.428;2023-01-06T05:10:25;5.27;;;4.60;;
1509;SDS011;746;48.688;9.428;2023-01-06T05:12:46;6.43;;;5.67;;
1509;SDS011;746;48.688;9.428;2023-01-06T05:15:08;6.07;;;5.43;;
1509;SDS011;746;48.688;9.428;2023-01-06T05:17:31;8.30;;;7.57;;
1509;SDS011;746;48.688;9.428;2023-01-06T05:19:52;6.20;;;5.70;;
1509;SDS011;746;48.688;9.428;2023-01-06T05:22:14;6.03;;;5.27;;
1509;SDS011;746;48.688;9.428;2023-01-06T05:24:35;5.80;;;5.30;;
1509;SDS011;746;48.688;9.428;2023-01-06T05:26:56;4.93;;;4.53;;
1509;SDS011;746;48.688;9.428;2023-01-06T05:29:18;5.20;;;4.73;;
1509;SDS011;746;48.688;9.428;2023-01-06T05:31:39;4.57;;;4.17;;
1509;SDS011;746;48.688;9.428;2023-01-06T05:34:02;4.97;;;4.53;;
1509;SDS011;746;48.688;9.428;2023-01-06T05:36:23;5.90;;;5.20;;
1509;SDS011;746;48.688;9.428;2023-01-06T05:38:49;5.47;;;4.97;;
1509;SDS011;746;48.688;9.428;2023-01-06T05:41:10;6.17;;;4.80;;
1509;SDS011;746;48.688;9.428;2023-01-06T05:43:32;4.90;;;4.50;;
1509;SDS011;746;48.688;9.428;2023-01-06T05:45:54;5.27;;;4.80;;
1509;SDS011;746;48.688;9.428;2023-01-06T05:48:15;6.00;;;4.90;;
1509;SDS011;746;48.688;9.428;2023-01-06T05:50:38;5.93;;;5.43;;
1509;SDS011;746;48.688;9.428;2023-01-06T05:52:59;4.77;;;4.37;;
1509;SDS011;746;48.688;9.428;2023-01-06T05:55:21;5.13;;;4.60;;
1509;SDS011;746;48.688;9.428;2023-01-06T05:57:42;6.47;;;5.87;;
1509;SDS011;746;48.688;9.428;2023-01-06T06:00:04;5.30;;;4.83;;
1509;SDS011;746;48.688;9.428;2023-01-06T06:02:25;6.10;;;5.10;;
1509;SDS011;746;48.688;9.428;2023-01-06T06:04:46;4.63;;;4.33;;
1509;SDS011;746;48.688;9.428;2023-01-06T06:07:09;5.23;;;4.83;;
1509;SDS011;746;48.688;9.428;2023-01-06T06:09:30;5.23;;;4.83;;
1509;SDS011;746;48.688;9.428;2023-01-06T06:11:52;5.20;;;4.80;;
1509;SDS011;746;48.688;9.428;2023-01-06T06:14:13;5.00;;;4.70;;
1509;SDS011;746;48.688;9.428;2023-01-06T06:16:36;4.80;;;4.37;;
1509;SDS011;746;48.688;9.428;2023-01-06T06:18:57;5.00;;;4.60;;
1509;SDS011;746;48.688;9.428;2023-01-06T06:21:20;4.47;;;4.13;;
1509;SDS011;746;48.688;9.428;2023-01-06T06:23:43;5.30;;;4.80;;
1509;SDS011;746;48.688;9.428;2023-01-06T06:26:04;5.17;;;4.77;;
1509;SDS011;746;48.688;9.428;2023-01-06T06:28:25;7.23;;;4.43;;
1509;SDS011;746;48.688;9.428;2023-01-06T06:30:46;4.70;;;4.30;;
1509;SDS011;746;48.688;9.428;2023-01-06T06:33:08;4.50;;;4.20;;
1509;SDS011;746;48.688;9.428;2023-01-06T06:35:29;4.60;;;4.20;;
1509;SDS011;746;48.688;9.428;2023-01-06T06:37:52;4.77;;;4.37;;
1509;SDS011;746;48.688;9.428;2023-01-06T06:40:14;5.00;;;4.47;;
1509;SDS011;746;48.688;9.428;2023-01-06T06:42:36;5.13;;;4.80;;
1509;SDS011;746;48.688;9.428;2023-01-06T06:44:57;5.17;;;4.67;;
1509;SDS011;746;48.688;9.428;2023-01-06T06:47:18;5.47;;;5.07;;
1509;SDS011;746;48.688;9.428;2023-01-06T06:49:39;6.83;;;4.83;;
1509;SDS011;746;48.688;9.428;2023-01-06T06:52:01;4.63;;;4.30;;
1509;SDS011;746;48.688;9.428;2023-01-06T06:54:23;4.53;;;4.23;;
1509;SDS011;746;48.688;9.428;2023-01-06T06:56:45;4.90;;;4.50;;
1509;SDS011;746;48.688;9.428;2023-01-06T06:59:07;4.80;;;4.30;;
1509;SDS011;746;48.688;9.428;2023-01-06T07:01:28;4.60;;;4.20;;
1509;SDS011;746;48.688;9.428;2023-01-06T07:03:50;5.23;;;4.33;;
1509;SDS011;746;48.688;9.428;2023-01-06T07:06:13;5.60;;;5.20;;
1509;SDS011;746;48.688;9.428;2023-01-06T07:08:34;5.53;;;5.13;;
1509;SDS011;746;48.688;9.428;2023-01-06T07:10:55;5.97;;;5.47;;
1509;SDS011;746;48.688;9.428;2023-01-06T07:13:18;5.10;;;4.67;;
1509;SDS011;746;48.688;9.428;2023-01-06T07:15:39;4.70;;;4.30;;
1509;SDS011;746;48.688;9.428;2023-01-06T07:18:00;4.77;;;4.47;;
1509;SDS011;746;48.688;9.428;2023-01-06T07:20:22;5.20;;;4.70;;
1509;SDS011;746;48.688;9.428;2023-01-06T07:22:43;5.10;;;4.70;;
1509;SDS011;746;48.688;9.428;2023-01-06T07:25:05;4.30;;;4.00;;
1509;SDS011;746;48.688;9.428;2023-01-06T07:27:26;4.80;;;4.50;;
1509;SDS011;746;48.688;9.428;2023-01-06T07:29:48;5.70;;;4.80;;
1509;SDS011;746;48.688;9.428;2023-01-06T07:32:10;6.50;;;5.90;;
1509;SDS011;746;48.688;9.428;2023-01-06T07:34:31;7.57;;;6.97;;
1509;SDS011;746;48.688;9.428;2023-01-06T07:36:53;7.20;;;6.50;;
1509;SDS011;746;48.688;9.428;2023-01-06T07:39:14;5.80;;;5.30;;
1509;SDS011;746;48.688;9.428;2023-01-06T07:41:35;5.50;;;4.73;;
1509;SDS011;746;48.688;9.428;2023-01-06T07:43:57;4.53;;;4.20;;
1509;SDS011;746;48.688;9.428;2023-01-06T07:46:19;4.90;;;4.50;;
1509;SDS011;746;48.688;9.428;2023-01-06T07:48:41;9.17;;;8.27;;
1509;SDS011;746;48.688;9.428;2023-01-06T07:51:02;7.33;;;6.63;;
1509;SDS011;746;48.688;9.428;2023-01-06T07:53:23;7.93;;;7.30;;
1509;SDS011;746;48.688;9.428;2023-01-06T07:55:49;6.93;;;6.23;;
1509;SDS011;746;48.688;9.428;2023-01-06T07:58:11;6.63;;;6.03;;
1509;SDS011;746;48.688;9.428;2023-01-06T08:00:32;7.10;;;6.40;;
1509;SDS011;746;48.688;9.428;2023-01-06T08:02:55;6.40;;;5.80;;
1509;SDS011;746;48.688;9.428;2023-01-06T08:05:16;5.60;;;5.20;;
1509;SDS011;746;48.688;9.428;2023-01-06T08:07:37;5.03;;;4.63;;
1509;SDS011;746;48.688;9.428;2023-01-06T08:09:59;4.80;;;4.40;;
1509;SDS011;746;48.688;9.428;2023-01-06T08:12:20;4.80;;;4.50;;
1509;SDS011;746;48.688;9.428;2023-01-06T08:14:41;5.70;;;4.60;;
1509;SDS011;746;48.688;9.428;2023-01-06T08:17:02;4.53;;;4.13;;
1509;SDS011;746;48.688;9.428;2023-01-06T08:19:25;4.53;;;4.17;;
1509;SDS011;746;48.688;9.428;2023-01-06T08:21:46;4.20;;;3.90;;
1509;SDS011;746;48.688;9.428;2023-01-06T08:24:08;3.83;;;3.40;;
1509;SDS011;746;48.688;9.428;2023-01-06T08:26:29;3.90;;;3.70;;
1509;SDS011;746;48.688;9.428;2023-01-06T08:28:50;3.97;;;3.67;;
1509;SDS011;746;48.688;9.428;2023-01-06T08:31:13;3.90;;;3.60;;
1509;SDS011;746;48.688;9.428;2023-01-06T08:33:34;3.63;;;3.33;;
1509;SDS011;746;48.688;9.428;2023-01-06T08:35:58;3.60;;;3.40;;
1509;SDS011;746;48.688;9.428;2023-01-06T08:38:19;3.40;;;3.20;;
1509;SDS011;746;48.688;9.428;2023-01-06T08:40:41;2.80;;;2.70;;
1509;SDS011;746;48.688;9.428;2023-01-06T08:43:02;3.27;;;3.03;;
1509;SDS011;746;48.688;9.428;2023-01-06T08:45:23;2.80;;;2.70;;
1509;SDS011;746;48.688;9.428;2023-01-06T08:47:46;3.17;;;2.97;;
1509;SDS011;746;48.688;9.428;2023-01-06T08:50:07;3.07;;;2.87;;
1509;SDS011;746;48.688;9.428;2023-01-06T08:52:29;3.20;;;2.70;;
1509;SDS011;746;48.688;9.428;2023-01-06T08:54:51;2.80;;;2.60;;
1509;SDS011;746;48.688;9.428;2023-01-06T08:57:12;3.77;;;3.37;;
1509;SDS011;746;48.688;9.428;2023-01-06T08:59:34;5.40;;;3.90;;
1509;SDS011;746;48.688;9.428;2023-01-06T09:01:56;4.40;;;4.07;;
1509;SDS011;746;48.688;9.428;2023-01-06T09:04:17;3.90;;;3.60;;
1509;SDS011;746;48.688;9.428;2023-01-06T09:06:40;3.30;;;3.00;;
1509;SDS011;746;48.688;9.428;2023-01-06T09:09:03;3.20;;;3.00;;
1509;SDS011;746;48.688;9.428;2023-01-06T09:11:25;2.70;;;2.60;;
1509;SDS011;746;48.688;9.428;2023-01-06T09:13:46;2.90;;;2.70;;
1509;SDS011;746;48.688;9.428;2023-01-06T09:16:09;2.63;;;2.50;;
1509;SDS011;746;48.688;9.428;2023-01-06T09:18:31;4.07;;;3.23;;
1509;SDS011;746;48.688;9.428;2023-01-06T09:20:53;4.03;;;3.17;;
1509;SDS011;746;48.688;9.428;2023-01-06T09:23:14;3.57;;;3.20;;
1509;SDS011;746;48.688;9.428;2023-01-06T09:25:36;3.47;;;3.17;;
1509;SDS011;746;48.688;9.428;2023-01-06T09:27:58;4.03;;;3.67;;
1509;SDS011;746;48.688;9.428;2023-01-06T09:30:19;3.50;;;3.20;;
1509;SDS011;746;48.688;9.428;2023-01-06T09:32:41;2.80;;;2.50;;
1509;SDS011;746;48.688;9.428;2023-01-06T09:35:02;2.70;;;2.50;;
1509;SDS011;746;48.688;9.428;2023-01-06T09:37:24;2.60;;;2.40;;
1509;SDS011;746;48.688;9.428;2023-01-06T09:39:45;2.73;;;2.53;;
1509;SDS011;746;48.688;9.428;2023-01-06T09:42:18;4.30;;;3.90;;
1509;SDS011;746;48.688;9.428;2023-01-06T09:44:45;3.20;;;2.90;;
1509;SDS011;746;48.688;9.428;2023-01-06T09:47:08;2.20;;;2.10;;
1509;SDS011;746;48.688;9.428;2023-01-06T09:49:34;3.03;;;2.83;;
1509;SDS011;746;48.688;9.428;2023-01-06T09:51:58;2.40;;;2.20;;
1509;SDS011;746;48.688;9.428;2023-01-06T09:54:21;2.70;;;2.50;;
1509;SDS011;746;48.688;9.428;2023-01-06T09:56:44;3.40;;;3.20;;
1509;SDS011;746;48.688;9.428;2023-01-06T09:59:11;2.50;;;2.30;;
1509;SDS011;746;48.688;9.428;2023-01-06T10:01:38;3.40;;;3.10;;
1509;SDS011;746;48.688;9.428;2023-01-06T10:04:00;2.93;;;2.73;;
1509;SDS011;746;48.688;9.428;2023-01-06T10:06:24;3.07;;;2.77;;
1509;SDS011;746;48.688;9.428;2023-01-06T10:08:50;3.43;;;3.23;;
1509;SDS011;746;48.688;9.428;2023-01-06T10:11:14;3.50;;;2.50;;
1509;SDS011;746;48.688;9.428;2023-01-06T10:13:46;2.97;;;2.77;;
1509;SDS011;746;48.688;9.428;2023-01-06T10:16:12;3.00;;;2.80;;
1509;SDS011;746;48.688;9.428;2023-01-06T10:18:39;3.13;;;2.83;;
1509;SDS011;746;48.688;9.428;2023-01-06T10:21:04;3.30;;;3.00;;
1509;SDS011;746;48.688;9.428;2023-01-06T10:26:10;3.17;;;2.87;;
1509;SDS011;746;48.688;9.428;2023-01-06T10:28:33;3.23;;;3.00;;
1509;SDS011;746;48.688;9.428;2023-01-06T10:30:55;2.80;;;2.60;;
1509;SDS011;746;48.688;9.428;2023-01-06T10:33:20;2.60;;;2.50;;
1509;SDS011;746;48.688;9.428;2023-01-06T10:35:41;3.30;;;2.90;;
1509;SDS011;746;48.688;9.428;2023-01-06T10:38:03;2.87;;;2.67;;
1509;SDS011;746;48.688;9.428;2023-01-06T10:40:27;2.80;;;2.60;;
1509;SDS011;746;48.688;9.428;2023-01-06T10:42:50;3.10;;;2.87;;
1509;SDS011;746;48.688;9.428;2023-01-06T10:45:18;2.67;;;2.47;;
1509;SDS011;746;48.688;9.428;2023-01-06T10:47:42;2.57;;;2.40;;
1509;SDS011;746;48.688;9.428;2023-01-06T10:50:05;2.27;;;2.17;;
1509;SDS011;746;48.688;9.428;2023-01-06T10:52:26;2.30;;;2.20;;
1509;SDS011;746;48.688;9.428;2023-01-06T10:54:49;2.63;;;2.40;;
1509;SDS011;746;48.688;9.428;2023-01-06T10:57:13;2.60;;;2.50;;
1509;SDS011;746;48.688;9.428;2023-01-06T11:02:18;2.13;;;1.90;;
1509;SDS011;746;48.688;9.428;2023-01-06T11:04:44;1.90;;;1.80;;
1509;SDS011;746;48.688;9.428;2023-01-06T11:07:12;2.37;;;2.00;;
1509;SDS011;746;48.688;9.428;2023-01-06T11:09:36;2.40;;;2.00;;
1509;SDS011;746;48.688;9.428;2023-01-06T11:11:59;2.57;;;2.37;;
1509;SDS011;746;48.688;9.428;2023-01-06T11:14:23;2.53;;;2.40;;
1509;SDS011;746;48.688;9.428;2023-01-06T11:16:51;1.90;;;1.80;;
1509;SDS011;746;48.688;9.428;2023-01-06T11:19:19;1.90;;;1.80;;
1509;SDS011;746;48.688;9.428;2023-01-06T11:21:43;2.23;;;2.13;;
1509;SDS011;746;48.688;9.428;2023-01-06T11:24:14;1.70;;;1.60;;
1509;SDS011;746;48.688;9.428;2023-01-06T11:26:42;1.90;;;1.80;;
1509;SDS011;746;48.688;9.428;2023-01-06T11:29:15;1.80;;;1.70;;
1509;SDS011;746;48.688;9.428;2023-01-06T11:31:37;2.20;;;2.10;;
1509;SDS011;746;48.688;9.428;2023-01-06T11:33:58;2.50;;;2.30;;
1509;SDS011;746;48.688;9.428;2023-01-06T11:36:20;2.00;;;1.90;;
1509;SDS011;746;48.688;9.428;2023-01-06T11:38:42;2.20;;;2.00;;
1509;SDS011;746;48.688;9.428;2023-01-06T11:41:05;2.50;;;2.30;;
1509;SDS011;746;48.688;9.428;2023-01-06T11:43:28;2.13;;;2.00;;
1509;SDS011;746;48.688;9.428;2023-01-06T11:45:52;1.77;;;1.70;;
1509;SDS011;746;48.688;9.428;2023-01-06T11:48:15;2.00;;;1.80;;
1509;SDS011;746;48.688;9.428;2023-01-06T11:50:37;1.90;;;1.80;;
1509;SDS011;746;48.688;9.428;2023-01-06T11:52:59;1.73;;;1.73;;
1509;SDS011;746;48.688;9.428;2023-01-06T11:55:21;1.77;;;1.67;;
1509;SDS011;746;48.688;9.428;2023-01-06T11:57:45;2.17;;;1.97;;
1509;SDS011;746;48.688;9.428;2023-01-06T12:00:21;1.73;;;1.63;;
1509;SDS011;746;48.688;9.428;2023-01-06T12:02:47;1.83;;;1.80;;
1509;SDS011;746;48.688;9.428;2023-01-06T12:05:14;2.53;;;1.70;;
1509;SDS011;746;48.688;9.428;2023-01-06T12:07:39;2.40;;;1.60;;
1509;SDS011;746;48.688;9.428;2023-01-06T12:10:04;1.70;;;1.60;;
1509;SDS011;746;48.688;9.428;2023-01-06T12:12:26;2.27;;;2.10;;
1509;SDS011;746;48.688;9.428;2023-01-06T12:14:50;3.93;;;2.13;;
1509;SDS011;746;48.688;9.428;2023-01-06T12:17:11;1.80;;;1.70;;
1509;SDS011;746;48.688;9.428;2023-01-06T12:19:35;2.03;;;1.93;;
1509;SDS011;746;48.688;9.428;2023-01-06T12:21:58;1.37;;;1.33;;
1509;SDS011;746;48.688;9.428;2023-01-06T12:24:20;1.30;;;1.30;;
1509;SDS011;746;48.688;9.428;2023-01-06T12:26:41;1.37;;;1.33;;
1509;SDS011;746;48.688;9.428;2023-01-06T12:29:03;1.27;;;1.27;;
1509;SDS011;746;48.688;9.428;2023-01-06T12:31:27;1.50;;;1.50;;
1509;SDS011;746;48.688;9.428;2023-01-06T12:33:53;1.73;;;1.63;;
1509;SDS011;746;48.688;9.428;2023-01-06T12:36:18;1.27;;;1.27;;
1509;SDS011;746;48.688;9.428;2023-01-06T12:38:46;1.27;;;1.27;;
1509;SDS011;746;48.688;9.428;2023-01-06T12:41:11;1.27;;;1.10;;
1509;SDS011;746;48.688;9.428;2023-01-06T12:43:36;1.60;;;1.50;;
1509;SDS011;746;48.688;9.428;2023-01-06T12:46:01;1.70;;;1.60;;
1509;SDS011;746;48.688;9.428;2023-01-06T12:48:28;2.00;;;1.90;;
1509;SDS011;746;48.688;9.428;2023-01-06T12:50:51;2.30;;;2.10;;
1509;SDS011;746;48.688;9.428;2023-01-06T12:53:16;8.67;;;5.70;;
1509;SDS011;746;48.688;9.428;2023-01-06T12:55:41;1.80;;;1.70;;
1509;SDS011;746;48.688;9.428;2023-01-06T12:58:05;1.50;;;1.40;;
1509;SDS011;746;48.688;9.428;2023-01-06T13:00:35;12.03;;;4.70;;
1509;SDS011;746;48.688;9.428;2023-01-06T13:05:42;1.50;;;1.50;;
1509;SDS011;746;48.688;9.428;2023-01-06T13:08:11;3.07;;;2.87;;
1509;SDS011;746;48.688;9.428;2023-01-06T13:10:38;3.50;;;3.30;;
1509;SDS011;746;48.688;9.428;2023-01-06T13:13:10;1.50;;;1.50;;
1509;SDS011;746;48.688;9.428;2023-01-06T13:15:37;3.07;;;2.93;;
1509;SDS011;746;48.688;9.428;2023-01-06T13:18:03;1.60;;;1.60;;
1509;SDS011;746;48.688;9.428;2023-01-06T13:20:27;1.67;;;1.40;;
1509;SDS011;746;48.688;9.428;2023-01-06T13:22:53;1.00;;;1.00;;
1509;SDS011;746;48.688;9.428;2023-01-06T13:25:23;1.23;;;1.10;;
1509;SDS011;746;48.688;9.428;2023-01-06T13:27:54;1.00;;;1.00;;
1509;SDS011;746;48.688;9.428;2023-01-06T13:30:30;1.43;;;1.33;;
1509;SDS011;746;48.688;9.428;2023-01-06T13:35:34;1.60;;;1.50;;
1509;SDS011;746;48.688;9.428;2023-01-06T13:38:13;1.70;;;1.60;;
1509;SDS011;746;48.688;9.428;2023-01-06T13:40:38;1.53;;;1.43;;
1509;SDS011;746;48.688;9.428;2023-01-06T13:43:01;1.40;;;1.40;;
1509;SDS011;746;48.688;9.428;2023-01-06T13:45:27;1.40;;;1.40;;
1509;SDS011;746;48.688;9.428;2023-01-06T13:47:49;1.53;;;1.53;;
1509;SDS011;746;48.688;9.428;2023-01-06T13:50:12;1.77;;;1.70;;
1509;SDS011;746;48.688;9.428;2023-01-06T13:52:34;1.70;;;1.60;;
1509;SDS011;746;48.688;9.428;2023-01-06T13:54:58;1.90;;;1.60;;
1509;SDS011;746;48.688;9.428;2023-01-06T13:57:24;1.30;;;1.30;;
1509;SDS011;746;48.688;9.428;2023-01-06T13:59:47;1.80;;;1.70;;
1509;SDS011;746;48.688;9.428;2023-01-06T14:02:21;2.30;;;2.20;;
1509;SDS011;746;48.688;9.428;2023-01-06T14:05:03;2.20;;;2.07;;
1509;SDS011;746;48.688;9.428;2023-01-06T14:07:32;1.57;;;1.50;;
1509;SDS011;746;48.688;9.428;2023-01-06T14:09:54;1.93;;;1.83;;
1509;SDS011;746;48.688;9.428;2023-01-06T14:12:19;2.20;;;2.00;;
1509;SDS011;746;48.688;9.428;2023-01-06T14:14:41;1.50;;;1.50;;
1509;SDS011;746;48.688;9.428;2023-01-06T14:17:02;2.27;;;2.07;;
1509;SDS011;746;48.688;9.428;2023-01-06T14:19:24;2.80;;;2.60;;
1509;SDS011;746;48.688;9.428;2023-01-06T14:21:47;3.00;;;2.70;;
1509;SDS011;746;48.688;9.428;2023-01-06T14:24:16;2.00;;;1.90;;
1509;SDS011;746;48.688;9.428;2023-01-06T14:26:51;1.90;;;1.80;;
1509;SDS011;746;48.688;9.428;2023-01-06T14:31:55;2.13;;;2.03;;
1509;SDS011;746;48.688;9.428;2023-01-06T14:34:16;1.33;;;1.33;;
1509;SDS011;746;48.688;9.428;2023-01-06T14:36:39;1.63;;;1.60;;
1509;SDS011;746;48.688;9.428;2023-01-06T14:39:01;1.60;;;1.50;;
1509;SDS011;746;48.688;9.428;2023-01-06T14:41:24;1.60;;;1.50;;
1509;SDS011;746;48.688;9.428;2023-01-06T14:43:49;1.90;;;1.80;;
1509;SDS011;746;48.688;9.428;2023-01-06T14:46:13;2.17;;;2.07;;
1509;SDS011;746;48.688;9.428;2023-01-06T14:48:37;3.10;;;2.90;;
1509;SDS011;746;48.688;9.428;2023-01-06T14:51:01;2.50;;;2.30;;
1509;SDS011;746;48.688;9.428;2023-01-06T14:53:24;2.70;;;2.50;;
1509;SDS011;746;48.688;9.428;2023-01-06T14:55:46;3.10;;;2.90;;
1509;SDS011;746;48.688;9.428;2023-01-06T15:00:45;3.60;;;3.30;;
1509;SDS011;746;48.688;9.428;2023-01-06T15:03:16;1.80;;;1.70;;
1509;SDS011;746;48.688;9.428;2023-01-06T15:05:41;1.80;;;1.70;;
1509;SDS011;746;48.688;9.428;2023-01-06T15:08:04;1.63;;;1.63;;
1509;SDS011;746;48.688;9.428;2023-01-06T15:10:26;1.80;;;1.70;;
1509;SDS011;746;48.688;9.428;2023-01-06T15:12:49;1.83;;;1.73;;
1509;SDS011;746;48.688;9.428;2023-01-06T15:15:19;1.80;;;1.70;;
1509;SDS011;746;48.688;9.428;2023-01-06T15:17:41;2.30;;;2.10;;
1509;SDS011;746;48.688;9.428;2023-01-06T15:20:03;2.40;;;2.30;;
1509;SDS011;746;48.688;9.428;2023-01-06T15:22:32;3.10;;;2.90;;
1509;SDS011;746;48.688;9.428;2023-01-06T15:24:53;2.43;;;2.23;;
1509;SDS011;746;48.688;9.428;2023-01-06T15:27:15;3.20;;;2.80;;